Flight Track Log - Related Links

Times and Time Zones

All times are in EST time to prevent confusion due to time zone crossing. See the BJS339 flight status page for this flight to view local times or setup timezone preferences in your user account.

Time Position Orientation Groundspeed Altitude Reporting Facility
EST Latitude Longitude Course Direction KTS MPH feet Rate Location/Type
Sun 05:35:29 PM 33.8592 -118.2164 264° West 216 249 2,200  Level Los Angeles Center
Sun 05:36:31 PM 33.8514 -118.3078 264° West 231 266 4,200 2,661 Climbing Los Angeles Center
Sun 05:37:33 PM 33.8431 -118.3858 263° West 238 274 7,700 3,000 Climbing Los Angeles Center
Sun 05:38:35 PM 33.8325 -118.4708 262° West 274 315 10,400 2,323 Climbing Los Angeles Center
Sun 05:39:37 PM 33.8175 -118.5678 259° West 303 349 12,500 1,258 Climbing Los Angeles Center
Sun 05:40:39 PM 33.7969 -118.7047 260° West 356 410 13,000 290 Climbing Los Angeles Center
Sun 05:41:00 PM 33.6807 -118.9867 264° West  Level Estimated
Sun 05:41:41 PM 33.7786 -118.8369 261° West 399 459 13,100  Level Los Angeles Center
Sun 05:42:43 PM 33.7608 -118.9669 261° West 396 456 16,000 2,448 Climbing Los Angeles Center
Sun 05:43:46 PM 33.7517 -119.0950 265° West 388 447 18,200 2,016 Climbing Los Angeles Center
Sun 05:44:48 PM 33.7436 -119.2233 266° West 386 444 20,200 2,129 Climbing Los Angeles Center
Sun 05:45:50 PM 33.7342 -119.3769 266° West 386 444 22,600 2,032 Climbing Los Angeles Center
Sun 05:46:52 PM 33.7239 -119.5047 265° West 385 443 24,400 1,452 Climbing Los Angeles Center
Sun 05:47:54 PM 33.7164 -119.6342 266° West 388 447 25,600 1,355 Climbing Los Angeles Center
Sun 05:48:56 PM 33.7064 -119.7664 265° West 397 457 27,200 1,258 Climbing Los Angeles Center
Sun 05:49:58 PM 33.6975 -119.8997 265° West 399 459 28,200 1,065 Climbing Los Angeles Center
Sun 05:51:00 PM 33.6883 -120.0339 265° West 403 464 29,400 1,355 Climbing Los Angeles Center
Sun 05:52:02 PM 33.6783 -120.1789 265° West 400 460 31,000 1,258 Climbing Los Angeles Center
Sun 05:53:04 PM 33.6700 -120.3094 266° West 394 453 32,000 864 Climbing Los Angeles Center
Sun 05:54:07 PM 33.6592 -120.4383 264° West 391 450 32,800 720 Climbing Los Angeles Center
Sun 05:55:09 PM 33.6492 -120.5700 265° West 393 452 33,500 823 Climbing Los Angeles Center
Sun 05:56:11 PM 33.6383 -120.7275 265° West 394 453 34,500 871 Climbing Los Angeles Center
Sun 05:57:13 PM 33.6272 -120.8553 264° West 389 448 35,300 726 Climbing Los Angeles Center
Sun 05:58:15 PM 33.6178 -120.9819 265° West 382 440 36,000 339 Climbing Los Angeles Center
Sun 05:59:17 PM 33.6075 -121.1111 265° West 385 443 36,000  Level Los Angeles Center
Sun 06:00:19 PM 33.5964 -121.2431 264° West 393 452 36,000  Level Los Angeles Center
Sun 06:01:21 PM 33.5842 -121.3806 264° West 407 468 36,000  Level Los Angeles Center
Sun 06:02:23 PM 33.5708 -121.5481 265° West 418 481 36,000  Level Los Angeles Center
Sun 06:03:25 PM 33.5597 -121.6900 265° West 425 489 36,000  Level Los Angeles Center
Sun 06:04:28 PM 33.5472 -121.8308 264° West 425 489 36,000  Level Los Angeles Center
Sun 06:05:30 PM 33.5358 -121.9714 264° West 424 488 36,000  Level Los Angeles Center
Sun 06:06:32 PM 33.5219 -122.1128 263° West 425 489 36,000  Level Los Angeles Center
Sun 06:07:46 PM 33.5100 -122.2533 264° West 426 490 36,000  Level Los Angeles Center
Sun 06:08:48 PM 33.4914 -122.4492 264° West 424 488 36,000  Level Los Angeles Center
Sun 06:09:51 PM 33.4761 -122.5889 263° West 423 487 36,000  Level Los Angeles Center
Sun 06:27:24 PM 33.0667 -124.5167 255° West 442 509 36,000 28 Level Oakland Oceanic (ODAPS)
Sun 07:20:54 PM 31.1000 -132.1333 251° West 451 519 38,000 18 Climbing Oakland Oceanic (ODAPS)
Sun 08:20:01 PM 28.7000 -139.4333 247° West 422 486 38,000 18 Level Oakland Oceanic (ODAPS)
Sun 09:13:12 PM 26.0000 -146.1667 244° Southwest 428 493 40,000 19 Climbing Oakland Oceanic (ODAPS)
Sun 10:07:52 PM 22.9000 -152.8167 241° Southwest 450 518 40,000  Level Honolulu Center
Sun 10:08:00 PM 22.8993 -152.8206 242° Southwest 428 493 40,000  Level FlightAware Transoceanic
Sun 10:08:53 PM 22.8500 -152.9167 242° Southwest 450 518 40,000  Level Honolulu Center
Sun 10:09:00 PM 22.8404 -152.9391 242° Southwest 428 493 40,000  Level FlightAware Transoceanic
Sun 10:09:53 PM 22.7667 -153.0500 236° Southwest 460 529 40,000  Level Honolulu Center
Sun 10:10:00 PM 22.7815 -153.0575 242° Southwest 428 493 40,000  Level FlightAware Transoceanic
Sun 10:10:52 PM 22.7000 -153.1667 238° Southwest 450 518 40,000  Level Honolulu Center
Sun 10:11:00 PM 22.7225 -153.1758 242° Southwest 428 493 40,000  Level FlightAware Transoceanic
Sun 10:11:53 PM 22.6333 -153.3000 242° Southwest 450 518 40,000  Level Honolulu Center
Sun 10:12:00 PM 22.6634 -153.2939 242° Southwest 428 493 40,000  Level FlightAware Transoceanic
Sun 10:12:53 PM 22.5667 -153.4167 238° Southwest 450 518 40,000  Level Honolulu Center
Sun 10:13:00 PM 22.6042 -153.4120 241° Southwest 428 493 40,000  Level FlightAware Transoceanic
Sun 10:13:53 PM 22.5000 -153.5333 238° Southwest 460 529 40,000  Level Honolulu Center
Sun 10:14:53 PM 22.4333 -153.6500 238° Southwest 460 529 40,000  Level Honolulu Center
Sun 10:15:53 PM 22.3833 -153.7667 245° Southwest 460 529 40,000  Level Honolulu Center
Sun 10:16:54 PM 22.3167 -153.8833 238° Southwest 470 541 40,000  Level Honolulu Center
Sun 10:17:54 PM 22.2500 -154.0000 238° Southwest 470 541 40,000  Level Honolulu Center
Sun 10:18:54 PM 22.1833 -154.1333 242° Southwest 470 541 40,000  Level Honolulu Center
Sun 10:19:54 PM 22.1000 -154.2500 232° Southwest 480 552 40,000  Level Honolulu Center
Sun 10:20:54 PM 22.0333 -154.3667 238° Southwest 470 541 40,000  Level Honolulu Center
Sun 10:21:54 PM 21.9667 -154.5000 242° Southwest 470 541 40,000  Level Honolulu Center
Sun 10:22:54 PM 21.9000 -154.6167 238° Southwest 470 541 40,000  Level Honolulu Center
Sun 10:23:54 PM 21.8333 -154.7333 238° Southwest 470 541 40,000  Level Honolulu Center
Sun 10:24:54 PM 21.7667 -154.8500 238° Southwest 470 541 40,000 -100 Level Honolulu Center
Sun 10:25:54 PM 21.6500 -154.9333 214° Southwest 480 552 39,800 -1,091 Descending Honolulu Center
Sun 10:26:55 PM 21.5167 -154.9667 193° South 520 598 37,800 -1,983 Descending Honolulu Center
Sun 10:27:55 PM 21.3667 -155.0167 197° South 510 587 35,800 -1,850 Descending Honolulu Center
Sun 10:28:55 PM 21.2500 -155.0500 195° South 490 564 34,100 -1,600 Descending Honolulu Center
Sun 10:29:55 PM 21.1500 -155.1667 227° Southwest 480 552 32,600 -2,000 Descending Honolulu Center
Sun 10:30:55 PM 21.1167 -155.3000 255° West 470 541 30,100 -2,400 Descending Honolulu Center
Sun 10:31:55 PM 21.1000 -155.4333 262° West 460 529 27,800 -2,380 Descending Honolulu Center
Sun 10:32:56 PM 21.0833 -155.5667 262° West 450 518 25,300 -2,380 Descending Honolulu Center
Sun 10:33:56 PM 21.0500 -155.7000 255° West 440 506 23,000 -2,250 Descending Honolulu Center
Sun 10:34:56 PM 21.0333 -155.8167 261° West 430 495 20,800 -2,250 Descending Honolulu Center
Sun 10:35:56 PM 21.0167 -155.9500 262° West 410 472 18,500 -2,300 Descending Honolulu Center
Sun 10:36:56 PM 21.0000 -156.0667 261° West 410 472 16,200 -2,200 Descending Honolulu Center
Sun 10:37:56 PM 20.9833 -156.1833 261° West 390 449 14,100 -2,000 Descending Honolulu Center
Sun 10:38:56 PM 20.9500 -156.2833 250° West 390 449 12,200 -2,000 Descending Honolulu Center
Sun 10:39:56 PM 20.8667 -156.3500 217° Southwest 350 403 10,100 -1,900 Descending Honolulu Center
Sun 10:40:56 PM 20.7833 -156.4000 209° Southwest 290 334 8,400 -1,600 Descending Honolulu Center
Sun 10:41:56 PM 20.7167 -156.4500 215° Southwest 280 322 6,900 -1,686 Descending Honolulu Center
Sun 10:42:57 PM 20.6833 -156.5167 242° Southwest 260 299 5,000 -1,850 Descending Honolulu Center
Sun 10:43:56 PM 20.6667 -156.5833 255° West 280 322 3,200 -1,000 Descending Honolulu Center
Sun 10:44:57 PM 20.7167 -156.5833 360° North 200 230 3,000 -99 Descending Honolulu Center
Sun 10:45:57 PM 20.7333 -156.5333 70° East 180 207 3,000 -200 Level Honolulu Center
Sun 10:46:57 PM 20.7667 -156.5167 25° Northeast 130 150 2,600 -550 Descending Honolulu Center
Sun 10:47:57 PM 20.8000 -156.4833 43° Northeast 120 138 1,900 -650 Descending Honolulu Center
Sun 10:48:57 PM 20.8333 -156.4667 25° Northeast 130 150 1,300 -650 Descending Honolulu Center
Sun 10:49:57 PM 20.8667 -156.4500 25° Northeast 120 138 600 -700 Descending Honolulu Center

Login

Don't have an account? Register now (free) for customized features, flight alerts, and more!